Time;durP1;ratioP1;P1;durP2;ratioP2;P2;SDS_P1;SDS_P2;PMS_P1;PMS_P2;Temp;Humidity;BMP_temperature;BMP_pressure;BME280_temperature;BME280_humidity;BME280_pressure;Samples;Min_cycle;Max_cycle;Signal;HPM_P1;HPM_P2
2022/03/18 00:01:40;;;;;;;29.05;5.70;;;;;;;;;;6096097;23;20018;-45
2022/03/18 00:04:05;;;;;;;20.88;4.70;;;;;;;;;;6096346;23;20086;-43
2022/03/18 00:06:30;;;;;;;36.53;5.50;;;;;;;;;;6093935;23;20068;-46
2022/03/18 00:08:56;;;;;;;35.05;6.53;;;;;;;;;;6093732;23;20034;-43
2022/03/18 00:11:21;;;;;;;33.03;6.63;;;;;;;;;;6095261;23;20014;-44
2022/03/18 00:13:46;;;;;;;30.13;6.28;;;;;;;;;;6093577;23;20045;-44
2022/03/18 00:16:11;;;;;;;21.63;5.32;;;;;;;;;;6096241;23;20034;-46
2022/03/18 00:18:37;;;;;;;15.57;5.03;;;;;;;;;;6093483;23;20396;-45
2022/03/18 00:21:02;;;;;;;20.65;6.43;;;;;;;;;;6096053;23;20014;-44
2022/03/18 00:23:28;;;;;;;23.33;5.25;;;;;;;;;;6093573;23;20033;-45
2022/03/18 00:25:53;;;;;;;26.08;6.75;;;;;;;;;;6095653;23;20006;-43
2022/03/18 00:28:18;;;;;;;45.95;7.65;;;;;;;;;;6093593;23;20018;-45
2022/03/18 00:30:44;;;;;;;26.98;6.10;;;;;;;;;;6096331;23;20017;-44
2022/03/18 00:33:09;;;;;;;41.83;6.47;;;;;;;;;;6095386;23;20995;-45
2022/03/18 00:35:34;;;;;;;24.38;6.43;;;;;;;;;;6096816;23;20022;-44
2022/03/18 00:38:02;;;;;;;41.92;6.40;;;;;;;;;;6092699;23;20014;-44
2022/03/18 00:40:27;;;;;;;32.35;7.25;;;;;;;;;;6095584;23;20025;-48
2022/03/18 00:42:52;;;;;;;22.50;7.10;;;;;;;;;;6094492;23;20038;-45
2022/03/18 00:45:17;;;;;;;17.70;6.72;;;;;;;;;;6095698;23;20010;-45
2022/03/18 00:53:10;;;;;;;27.17;8.40;;;;;;;;;;6097381;23;20046;-45
2022/03/18 00:55:35;;;;;;;23.77;6.20;;;;;;;;;;6093092;23;20010;-44
2022/03/18 00:58:01;;;;;;;23.23;6.30;;;;;;;;;;6096788;23;20006;-47
2022/03/18 01:00:26;;;;;;;23.55;7.75;;;;;;;;;;6094069;23;20042;-46
2022/03/18 01:02:51;;;;;;;24.35;5.38;;;;;;;;;;6094711;23;20099;-44
2022/03/18 01:05:17;;;;;;;25.15;6.15;;;;;;;;;;6096500;23;20191;-45
2022/03/18 01:07:42;;;;;;;19.60;4.35;;;;;;;;;;6095930;23;20054;-45
2022/03/18 01:10:07;;;;;;;14.52;5.45;;;;;;;;;;6095891;23;20087;-46
2022/03/18 01:12:33;;;;;;;13.38;4.57;;;;;;;;;;6094758;23;20010;-47
2022/03/18 01:14:58;;;;;;;11.98;5.60;;;;;;;;;;6093444;23;20014;-46
2022/03/18 01:17:23;;;;;;;10.93;4.15;;;;;;;;;;6092982;23;20089;-45
2022/03/18 01:19:49;;;;;;;13.73;4.88;;;;;;;;;;6094997;23;20007;-45
2022/03/18 01:22:14;;;;;;;9.20;3.85;;;;;;;;;;6093864;23;20058;-44
2022/03/18 01:24:39;;;;;;;8.45;4.97;;;;;;;;;;6096686;23;20018;-44
2022/03/18 01:27:05;;;;;;;12.18;3.92;;;;;;;;;;6094023;23;20014;-44
2022/03/18 01:29:30;;;;;;;11.52;3.92;;;;;;;;;;6094704;23;20464;-44
2022/03/18 01:31:56;;;;;;;15.50;5.00;;;;;;;;;;6096983;23;20015;-44
2022/03/18 01:34:21;;;;;;;15.00;3.80;;;;;;;;;;6097373;23;20078;-43
2022/03/18 01:36:46;;;;;;;20.73;5.20;;;;;;;;;;6097027;23;20506;-45
2022/03/18 01:39:12;;;;;;;12.05;4.95;;;;;;;;;;6096741;23;20015;-50
2022/03/18 01:41:38;;;;;;;15.07;4.10;;;;;;;;;;6097408;23;20046;-45
2022/03/18 01:44:03;;;;;;;11.38;4.00;;;;;;;;;;6097903;23;20018;-45
2022/03/18 01:46:29;;;;;;;12.50;3.90;;;;;;;;;;6094677;23;20014;-44
2022/03/18 01:48:54;;;;;;;9.57;4.30;;;;;;;;;;6098508;23;20017;-45
2022/03/18 01:51:20;;;;;;;13.02;4.03;;;;;;;;;;6095022;23;20030;-46
2022/03/18 01:53:45;;;;;;;9.68;4.05;;;;;;;;;;6092962;23;20013;-46
2022/03/18 01:56:10;;;;;;;15.43;5.47;;;;;;;;;;6091518;23;20018;-44
2022/03/18 01:58:36;;;;;;;13.10;4.13;;;;;;;;;;6089532;23;20011;-43
2022/03/18 02:01:01;;;;;;;10.18;3.95;;;;;;;;;;6092740;23;20100;-45
2022/03/18 02:03:27;;;;;;;11.38;3.70;;;;;;;;;;6094656;23;20026;-44
2022/03/18 02:05:52;;;;;;;16.73;5.50;;;;;;;;;;6095134;23;20014;-43
2022/03/18 02:08:18;;;;;;;4.90;3.38;;;;;;;;;;6095095;23;20014;-44
2022/03/18 02:10:44;;;;;;;13.05;4.00;;;;;;;;;;6093879;23;20019;-43
2022/03/18 02:13:09;;;;;;;12.82;4.32;;;;;;;;;;6097013;23;20007;-45
2022/03/18 02:15:35;;;;;;;36.05;6.05;;;;;;;;;;6093850;23;20011;-46
2022/03/18 02:18:00;;;;;;;11.43;5.40;;;;;;;;;;6095838;23;20022;-44
2022/03/18 02:20:25;;;;;;;18.13;5.80;;;;;;;;;;6093876;23;20069;-43
2022/03/18 02:22:51;;;;;;;30.05;5.97;;;;;;;;;;6095773;23;20018;-44
2022/03/18 02:25:16;;;;;;;31.38;8.02;;;;;;;;;;6093831;23;20015;-43
2022/03/18 02:27:53;;;;;;;35.60;9.48;;;;;;;;;;6095750;23;20097;-43
2022/03/18 02:30:19;;;;;;;37.28;9.50;;;;;;;;;;6095532;23;20010;-44
2022/03/18 02:32:44;;;;;;;37.25;9.00;;;;;;;;;;6088868;23;20534;-44
2022/03/18 02:35:10;;;;;;;56.47;9.57;;;;;;;;;;6091091;23;20023;-43
2022/03/18 02:37:35;;;;;;;34.10;8.05;;;;;;;;;;6088304;23;20015;-44
2022/03/18 02:40:02;;;;;;;69.20;12.65;;;;;;;;;;6095093;23;20081;-44
2022/03/18 02:42:27;;;;;;;38.65;10.52;;;;;;;;;;6094916;23;20026;-45
2022/03/18 02:44:53;;;;;;;43.92;11.02;;;;;;;;;;6095344;23;20029;-46
2022/03/18 02:47:19;;;;;;;43.33;11.40;;;;;;;;;;6091772;23;20415;-45
2022/03/18 02:49:44;;;;;;;37.03;10.48;;;;;;;;;;6080541;23;20069;-45
2022/03/18 02:52:09;;;;;;;40.92;9.43;;;;;;;;;;6089919;23;20046;-44
2022/03/18 02:54:35;;;;;;;29.70;8.40;;;;;;;;;;6095392;23;20006;-46
2022/03/18 02:57:00;;;;;;;24.35;8.98;;;;;;;;;;6097458;23;20102;-44
2022/03/18 02:59:25;;;;;;;51.63;9.82;;;;;;;;;;6093240;23;20014;-43
2022/03/18 03:01:51;;;;;;;34.30;10.38;;;;;;;;;;6096267;23;20018;-45
2022/03/18 03:04:17;;;;;;;29.88;9.13;;;;;;;;;;6092198;23;20014;-44
2022/03/18 03:09:26;;;;;;;40.97;8.25;;;;;;;;;;6094220;23;20059;-43
2022/03/18 03:11:52;;;;;;;28.02;8.13;;;;;;;;;;6096821;23;20568;-44
2022/03/18 03:14:17;;;;;;;27.25;7.25;;;;;;;;;;6093596;23;20014;-44
2022/03/18 03:16:42;;;;;;;30.33;9.35;;;;;;;;;;6097033;23;20041;-45
2022/03/18 03:19:08;;;;;;;26.52;9.15;;;;;;;;;;6093803;23;20014;-45
2022/03/18 03:21:34;;;;;;;28.60;8.43;;;;;;;;;;6096910;23;21017;-44
2022/03/18 03:24:00;;;;;;;27.63;7.68;;;;;;;;;;6095881;23;20025;-46
2022/03/18 03:26:25;;;;;;;31.83;8.73;;;;;;;;;;6093398;23;20018;-44
2022/03/18 03:28:51;;;;;;;28.25;8.57;;;;;;;;;;6096610;23;20018;-44
2022/03/18 03:31:16;;;;;;;31.42;9.10;;;;;;;;;;6094562;23;20014;-44
2022/03/18 03:33:42;;;;;;;28.73;9.07;;;;;;;;;;6088362;23;20018;-44
2022/03/18 03:36:08;;;;;;;27.98;10.23;;;;;;;;;;6089978;23;20468;-45
2022/03/18 03:38:33;;;;;;;21.55;8.75;;;;;;;;;;6091276;23;20014;-45
2022/03/18 03:40:58;;;;;;;27.65;8.68;;;;;;;;;;6084811;23;20364;-45
2022/03/18 03:43:23;;;;;;;32.80;8.63;;;;;;;;;;6086102;23;20098;-44
2022/03/18 03:45:49;;;;;;;28.60;9.40;;;;;;;;;;6077475;23;20038;-44
2022/03/18 03:48:14;;;;;;;27.52;9.95;;;;;;;;;;6084795;23;20037;-44
2022/03/18 03:50:40;;;;;;;27.33;9.77;;;;;;;;;;6086018;23;20073;-45
2022/03/18 03:53:06;;;;;;;35.88;10.52;;;;;;;;;;6084529;23;20014;-46
2022/03/18 03:55:31;;;;;;;34.30;9.55;;;;;;;;;;6084604;23;20014;-45
2022/03/18 03:57:56;;;;;;;36.75;9.85;;;;;;;;;;6085344;23;20022;-45
2022/03/18 04:00:21;;;;;;;45.72;10.98;;;;;;;;;;6085044;23;20425;-43
2022/03/18 04:02:47;;;;;;;71.30;12.70;;;;;;;;;;6083446;23;20145;-43
2022/03/18 04:05:12;;;;;;;52.55;12.52;;;;;;;;;;6085495;23;20621;-44
2022/03/18 04:07:39;;;;;;;64.00;13.43;;;;;;;;;;6089773;23;20486;-47
2022/03/18 04:10:05;;;;;;;56.15;13.93;;;;;;;;;;6088305;23;20316;-45
2022/03/18 04:12:32;;;;;;;62.17;13.85;;;;;;;;;;6091332;23;20522;-43
2022/03/18 04:14:58;;;;;;;66.55;14.02;;;;;;;;;;6093840;23;20010;-44
2022/03/18 04:17:26;;;;;;;66.88;17.27;;;;;;;;;;6090660;23;20018;-45
2022/03/18 04:19:51;;;;;;;83.85;18.13;;;;;;;;;;6088224;23;20014;-45
2022/03/18 04:22:16;;;;;;;103.78;17.13;;;;;;;;;;6080340;23;20057;-44
2022/03/18 04:24:41;;;;;;;65.47;16.58;;;;;;;;;;6093297;23;20030;-44
2022/03/18 04:27:07;;;;;;;74.45;15.25;;;;;;;;;;6087738;23;20014;-44
2022/03/18 04:29:32;;;;;;;62.38;12.82;;;;;;;;;;6094669;23;20006;-44
2022/03/18 04:31:58;;;;;;;68.78;16.30;;;;;;;;;;6095298;23;20010;-44
2022/03/18 04:34:23;;;;;;;61.17;15.20;;;;;;;;;;6094461;23;20014;-44
2022/03/18 04:36:48;;;;;;;76.35;19.17;;;;;;;;;;6094944;23;20014;-44
2022/03/18 04:39:14;;;;;;;63.60;16.00;;;;;;;;;;6094951;23;20049;-45
2022/03/18 04:41:39;;;;;;;135.18;24.08;;;;;;;;;;6094252;23;20021;-45
2022/03/18 04:44:04;;;;;;;75.57;18.45;;;;;;;;;;6096610;23;20843;-44
2022/03/18 04:46:31;;;;;;;103.15;19.00;;;;;;;;;;6093157;23;20010;-43
2022/03/18 04:48:57;;;;;;;100.57;20.67;;;;;;;;;;6096923;23;20030;-46
2022/03/18 04:51:22;;;;;;;112.40;23.13;;;;;;;;;;6089851;23;20026;-45
2022/03/18 04:53:48;;;;;;;110.60;21.92;;;;;;;;;;6095555;23;20569;-45
2022/03/18 04:58:57;;;;;;;108.53;22.27;;;;;;;;;;6095505;23;20120;-45
2022/03/18 05:01:22;;;;;;;120.38;24.27;;;;;;;;;;6095062;23;20014;-44
2022/03/18 05:03:48;;;;;;;109.18;23.60;;;;;;;;;;6093499;23;20620;-49
2022/03/18 05:06:13;;;;;;;114.93;24.10;;;;;;;;;;6095010;23;20010;-46
2022/03/18 05:08:38;;;;;;;119.72;24.02;;;;;;;;;;6093802;23;20015;-43
2022/03/18 05:11:03;;;;;;;126.55;23.92;;;;;;;;;;6095454;23;20011;-44
2022/03/18 05:13:29;;;;;;;120.97;22.98;;;;;;;;;;6093266;23;20010;-44
2022/03/18 05:15:54;;;;;;;118.07;23.05;;;;;;;;;;6096191;23;20033;-43
2022/03/18 05:18:19;;;;;;;132.38;23.27;;;;;;;;;;6093113;23;20021;-43
2022/03/18 05:20:45;;;;;;;100.53;23.10;;;;;;;;;;6095219;23;20011;-43
2022/03/18 05:23:10;;;;;;;98.88;19.88;;;;;;;;;;6093302;23;20085;-45
2022/03/18 05:25:35;;;;;;;122.65;24.80;;;;;;;;;;6095582;23;20045;-43
2022/03/18 05:28:00;;;;;;;167.90;25.75;;;;;;;;;;6093415;23;20015;-45
2022/03/18 05:30:26;;;;;;;127.50;25.33;;;;;;;;;;6092560;23;20038;-44
2022/03/18 05:32:51;;;;;;;137.48;22.88;;;;;;;;;;6092112;23;20065;-45
2022/03/18 05:35:18;;;;;;;109.22;22.55;;;;;;;;;;6096421;23;20010;-45
2022/03/18 05:37:43;;;;;;;137.95;24.67;;;;;;;;;;6094687;23;20026;-43
2022/03/18 05:40:10;;;;;;;124.15;24.13;;;;;;;;;;6095750;23;20038;-44
2022/03/18 05:42:36;;;;;;;102.13;20.17;;;;;;;;;;6094314;23;20015;-44
2022/03/18 05:45:02;;;;;;;81.00;17.65;;;;;;;;;;6096098;23;20041;-44
2022/03/18 05:47:28;;;;;;;76.30;18.60;;;;;;;;;;6092825;23;20351;-44
2022/03/18 05:49:54;;;;;;;127.47;26.27;;;;;;;;;;6095594;23;20018;-43
2022/03/18 05:52:19;;;;;;;79.22;18.50;;;;;;;;;;6093204;23;20033;-44
2022/03/18 05:54:45;;;;;;;99.25;20.35;;;;;;;;;;6096238;23;20010;-44
2022/03/18 05:57:12;;;;;;;73.40;20.00;;;;;;;;;;6094544;23;20028;-44
2022/03/18 05:59:37;;;;;;;81.00;16.13;;;;;;;;;;6094893;23;20020;-45
2022/03/18 06:02:03;;;;;;;54.05;13.95;;;;;;;;;;6093331;23;20018;-45
2022/03/18 06:04:28;;;;;;;50.30;11.75;;;;;;;;;;6093592;23;20030;-42
2022/03/18 06:06:54;;;;;;;49.20;13.55;;;;;;;;;;6092773;23;20461;-43
2022/03/18 06:12:04;;;;;;;29.83;11.38;;;;;;;;;;6091461;23;20070;-46
2022/03/18 06:14:30;;;;;;;53.67;13.10;;;;;;;;;;6094395;23;20010;-45
2022/03/18 06:16:56;;;;;;;68.35;13.50;;;;;;;;;;6094671;23;20030;-46
2022/03/18 06:19:22;;;;;;;54.47;11.27;;;;;;;;;;6093539;23;20014;-44
2022/03/18 06:21:47;;;;;;;59.47;14.05;;;;;;;;;;6094436;23;20084;-44
2022/03/18 06:24:13;;;;;;;76.20;13.45;;;;;;;;;;6093879;23;20025;-48
2022/03/18 06:26:38;;;;;;;57.05;11.63;;;;;;;;;;6094725;23;20021;-46
2022/03/18 06:29:04;;;;;;;71.47;12.65;;;;;;;;;;6095845;23;20436;-46
2022/03/18 06:31:30;;;;;;;46.55;10.63;;;;;;;;;;6094484;23;20388;-47
2022/03/18 06:33:55;;;;;;;75.70;16.73;;;;;;;;;;6095419;23;20010;-45
2022/03/18 06:36:20;;;;;;;74.35;15.45;;;;;;;;;;6093357;23;20050;-48
2022/03/18 06:38:46;;;;;;;56.90;13.05;;;;;;;;;;6095569;23;20434;-44
2022/03/18 06:41:11;;;;;;;58.67;12.95;;;;;;;;;;6095054;23;20014;-46
2022/03/18 06:43:36;;;;;;;58.22;13.65;;;;;;;;;;6094760;23;20018;-47
2022/03/18 06:46:02;;;;;;;53.50;13.27;;;;;;;;;;6095418;23;20141;-47
2022/03/18 06:48:27;;;;;;;80.13;13.23;;;;;;;;;;6094663;23;20101;-46
2022/03/18 06:50:53;;;;;;;72.95;13.85;;;;;;;;;;6093971;23;20026;-44
2022/03/18 06:53:18;;;;;;;67.43;14.68;;;;;;;;;;6093523;23;20030;-46
2022/03/18 06:55:43;;;;;;;73.88;13.77;;;;;;;;;;6091406;23;20021;-47
2022/03/18 06:58:09;;;;;;;65.13;13.30;;;;;;;;;;6083781;23;20500;-47
2022/03/18 07:00:35;;;;;;;86.18;16.00;;;;;;;;;;6074353;23;20011;-45
2022/03/18 07:03:01;;;;;;;85.47;18.02;;;;;;;;;;6084633;23;20447;-45
2022/03/18 07:05:27;;;;;;;142.20;22.48;;;;;;;;;;6086344;23;20474;-45
2022/03/18 07:07:52;;;;;;;78.15;16.33;;;;;;;;;;6091639;23;20046;-45
2022/03/18 07:10:17;;;;;;;90.22;17.25;;;;;;;;;;6092422;23;20011;-46
2022/03/18 07:12:43;;;;;;;81.15;15.02;;;;;;;;;;6095174;23;20021;-48
2022/03/18 07:15:08;;;;;;;88.53;17.67;;;;;;;;;;6094468;23;20038;-45
2022/03/18 07:20:18;;;;;;;106.35;17.08;;;;;;;;;;6074831;23;20020;-46
2022/03/18 07:22:43;;;;;;;90.22;17.67;;;;;;;;;;6075750;23;20044;-46
2022/03/18 07:25:09;;;;;;;96.60;17.33;;;;;;;;;;6073584;23;20011;-45
2022/03/18 07:27:34;;;;;;;83.72;16.00;;;;;;;;;;6078597;23;20014;-48
2022/03/18 07:29:59;;;;;;;144.88;19.55;;;;;;;;;;6094780;23;20021;-46
2022/03/18 07:32:25;;;;;;;74.63;15.95;;;;;;;;;;6094689;23;20039;-46
2022/03/18 07:34:50;;;;;;;73.43;15.70;;;;;;;;;;6096274;23;20049;-46
2022/03/18 07:37:15;;;;;;;74.80;15.55;;;;;;;;;;6093524;23;20466;-44
2022/03/18 07:39:41;;;;;;;89.70;14.52;;;;;;;;;;6095748;23;20143;-47
2022/03/18 07:42:06;;;;;;;58.92;14.95;;;;;;;;;;6094379;23;20413;-46
2022/03/18 07:44:31;;;;;;;53.10;14.77;;;;;;;;;;6095173;23;20436;-47
2022/03/18 07:46:56;;;;;;;81.10;17.35;;;;;;;;;;6093259;23;20014;-45
2022/03/18 07:49:22;;;;;;;53.08;15.00;;;;;;;;;;6096094;23;20010;-44
2022/03/18 07:51:47;;;;;;;54.47;12.70;;;;;;;;;;6094015;23;20070;-44
2022/03/18 07:54:12;;;;;;;53.60;14.75;;;;;;;;;;6096488;23;20019;-46
2022/03/18 07:56:38;;;;;;;44.90;12.57;;;;;;;;;;6094279;23;20018;-48
2022/03/18 07:59:03;;;;;;;43.15;15.45;;;;;;;;;;6092535;23;20003;-43
2022/03/18 08:01:29;;;;;;;45.67;15.60;;;;;;;;;;6093915;23;20010;-45
2022/03/18 08:03:55;;;;;;;51.40;14.15;;;;;;;;;;6095425;23;20010;-45
2022/03/18 08:06:21;;;;;;;45.45;14.50;;;;;;;;;;6092215;23;20014;-44
2022/03/18 08:08:46;;;;;;;37.35;15.07;;;;;;;;;;6094161;23;20010;-44
2022/03/18 08:11:11;;;;;;;42.80;12.98;;;;;;;;;;6078655;23;20023;-44
2022/03/18 08:13:37;;;;;;;52.63;16.20;;;;;;;;;;6079038;23;20010;-46
2022/03/18 08:16:02;;;;;;;48.50;15.32;;;;;;;;;;6091779;23;20081;-43
2022/03/18 08:18:27;;;;;;;63.63;16.10;;;;;;;;;;6095258;23;20042;-50
2022/03/18 08:20:53;;;;;;;55.75;14.07;;;;;;;;;;6090457;23;20011;-43
2022/03/18 08:23:18;;;;;;;69.82;15.25;;;;;;;;;;6094023;23;20018;-43
2022/03/18 08:25:43;;;;;;;55.72;16.55;;;;;;;;;;6085044;23;20014;-44
2022/03/18 08:28:09;;;;;;;45.38;15.27;;;;;;;;;;6088372;23;20017;-43
2022/03/18 08:30:34;;;;;;;44.95;17.42;;;;;;;;;;6087952;23;20015;-43
2022/03/18 08:33:00;;;;;;;51.47;17.08;;;;;;;;;;6089362;23;20010;-45
2022/03/18 08:35:25;;;;;;;42.53;16.45;;;;;;;;;;6089148;23;20089;-44
2022/03/18 08:37:56;;;;;;;48.67;16.95;;;;;;;;;;6085809;23;20026;-44
2022/03/18 08:40:22;;;;;;;41.75;17.15;;;;;;;;;;6089192;23;20025;-43
2022/03/18 08:42:47;;;;;;;41.95;16.67;;;;;;;;;;6089461;23;20026;-45
2022/03/18 08:45:13;;;;;;;53.85;17.55;;;;;;;;;;6088498;23;20018;-45
2022/03/18 08:47:38;;;;;;;51.05;17.73;;;;;;;;;;6090276;23;20010;-43
2022/03/18 08:50:04;;;;;;;45.35;17.83;;;;;;;;;;6090028;23;20015;-43
2022/03/18 08:52:29;;;;;;;58.53;18.83;;;;;;;;;;6089567;23;20021;-43
2022/03/18 08:54:55;;;;;;;55.13;17.42;;;;;;;;;;6090767;23;20011;-43
2022/03/18 08:57:20;;;;;;;35.97;17.10;;;;;;;;;;6086336;23;20017;-43
2022/03/18 08:59:45;;;;;;;48.65;17.42;;;;;;;;;;6091650;23;20014;-43
2022/03/18 09:02:11;;;;;;;50.88;17.58;;;;;;;;;;6090134;23;20070;-43
2022/03/18 09:04:36;;;;;;;37.42;16.42;;;;;;;;;;6077454;23;20065;-44
2022/03/18 09:07:01;;;;;;;40.30;16.90;;;;;;;;;;6088323;23;20014;-45
2022/03/18 09:09:28;;;;;;;49.38;16.80;;;;;;;;;;6090111;23;20342;-46
2022/03/18 09:11:54;;;;;;;40.40;15.48;;;;;;;;;;6088377;23;20078;-43
2022/03/18 09:14:19;;;;;;;55.17;15.93;;;;;;;;;;6091490;23;20014;-45
2022/03/18 09:16:45;;;;;;;33.28;14.48;;;;;;;;;;6090057;23;20081;-45
2022/03/18 09:19:10;;;;;;;34.97;15.38;;;;;;;;;;6092485;23;20022;-45
2022/03/18 09:21:35;;;;;;;38.22;15.32;;;;;;;;;;6094910;23;20041;-45
2022/03/18 09:24:01;;;;;;;28.38;12.07;;;;;;;;;;6093241;23;20449;-45
2022/03/18 09:26:27;;;;;;;30.23;11.93;;;;;;;;;;6094055;23;20077;-43
2022/03/18 09:28:52;;;;;;;30.17;11.10;;;;;;;;;;6087986;23;20412;-45
2022/03/18 09:31:18;;;;;;;27.35;9.73;;;;;;;;;;6084820;23;20019;-44
2022/03/18 09:33:46;;;;;;;20.27;9.88;;;;;;;;;;6090643;23;20022;-43
2022/03/18 09:36:11;;;;;;;20.67;8.65;;;;;;;;;;6087474;23;20015;-44
2022/03/18 09:38:37;;;;;;;30.27;10.43;;;;;;;;;;6090556;23;20019;-44
2022/03/18 09:41:02;;;;;;;20.10;9.88;;;;;;;;;;6090042;23;20014;-46
2022/03/18 09:43:35;;;;;;;23.30;9.02;;;;;;;;;;6087220;23;20057;-47
2022/03/18 09:46:02;;;;;;;22.88;9.10;;;;;;;;;;6090376;23;20025;-43
2022/03/18 09:48:28;;;;;;;14.82;7.30;;;;;;;;;;6090931;23;20046;-44
2022/03/18 09:50:53;;;;;;;18.88;7.25;;;;;;;;;;6092965;23;20101;-44
2022/03/18 09:53:19;;;;;;;23.08;9.18;;;;;;;;;;6095220;23;20030;-44
2022/03/18 09:55:44;;;;;;;19.98;8.35;;;;;;;;;;6092434;23;20025;-45
2022/03/18 09:58:11;;;;;;;16.38;8.75;;;;;;;;;;6096053;23;20017;-45
2022/03/18 10:00:37;;;;;;;20.13;8.80;;;;;;;;;;6093391;23;20069;-44
2022/03/18 10:03:12;;;;;;;16.80;8.18;;;;;;;;;;6095606;23;20022;-44
2022/03/18 10:05:47;;;;;;;23.83;7.70;;;;;;;;;;6093734;23;20014;-44
2022/03/18 10:08:12;;;;;;;16.95;7.80;;;;;;;;;;6094137;23;20022;-43
2022/03/18 10:10:47;;;;;;;15.98;8.02;;;;;;;;;;6096348;23;20018;-43
2022/03/18 10:13:13;;;;;;;17.20;8.02;;;;;;;;;;6093615;23;20033;-43
2022/03/18 10:15:38;;;;;;;17.27;8.45;;;;;;;;;;6096018;23;20054;-44
2022/03/18 10:18:04;;;;;;;20.67;8.50;;;;;;;;;;6094199;23;20065;-44
2022/03/18 10:20:34;;;;;;;20.20;8.30;;;;;;;;;;6094133;23;20006;-44
2022/03/18 10:23:04;;;;;;;20.23;8.43;;;;;;;;;;6094158;23;20022;-45
2022/03/18 10:25:33;;;;;;;22.83;8.13;;;;;;;;;;6093765;23;20060;-44
2022/03/18 10:27:59;;;;;;;25.97;9.53;;;;;;;;;;6094393;23;20021;-43
2022/03/18 10:30:24;;;;;;;22.55;7.50;;;;;;;;;;6091908;23;20229;-43
2022/03/18 10:32:50;;;;;;;20.25;8.05;;;;;;;;;;6094773;23;20015;-44
2022/03/18 10:38:30;;;;;;;16.80;7.32;;;;;;;;;;6092255;23;20031;-45
2022/03/18 10:40:56;;;;;;;27.52;9.68;;;;;;;;;;6094881;23;20007;-44
2022/03/18 10:43:22;;;;;;;18.23;8.15;;;;;;;;;;6094578;23;20030;-44
2022/03/18 10:46:05;;;;;;;20.63;8.00;;;;;;;;;;6093386;23;20017;-45
2022/03/18 10:48:31;;;;;;;15.40;8.07;;;;;;;;;;6094321;23;20018;-44
2022/03/18 10:51:04;;;;;;;23.30;9.48;;;;;;;;;;6094046;23;20022;-44
2022/03/18 10:53:30;;;;;;;23.30;9.85;;;;;;;;;;6095281;23;20109;-45
2022/03/18 10:55:58;;;;;;;19.27;8.88;;;;;;;;;;6093761;23;20029;-44
2022/03/18 10:58:24;;;;;;;21.70;9.75;;;;;;;;;;6095531;23;20191;-44
2022/03/18 11:00:52;;;;;;;21.80;9.50;;;;;;;;;;6093611;23;20086;-44
2022/03/18 11:03:18;;;;;;;29.75;10.40;;;;;;;;;;6094953;23;20030;-43
2022/03/18 11:05:47;;;;;;;21.00;9.70;;;;;;;;;;6088144;23;20037;-45
2022/03/18 11:08:21;;;;;;;20.95;10.23;;;;;;;;;;6088877;23;20018;-44
2022/03/18 11:13:41;;;;;;;28.88;10.60;;;;;;;;;;6089372;23;20092;-46
2022/03/18 11:16:07;;;;;;;32.28;12.00;;;;;;;;;;6094537;23;20019;-44
2022/03/18 11:18:32;;;;;;;26.00;11.32;;;;;;;;;;6092084;23;20010;-44
2022/03/18 11:20:58;;;;;;;23.85;10.40;;;;;;;;;;6096517;23;20066;-45
2022/03/18 11:23:24;;;;;;;22.35;9.60;;;;;;;;;;6092688;23;20026;-43
2022/03/18 11:25:51;;;;;;;20.00;9.88;;;;;;;;;;6095193;23;20577;-46
2022/03/18 11:28:17;;;;;;;21.92;10.68;;;;;;;;;;6093031;23;20580;-44
2022/03/18 11:30:44;;;;;;;22.98;10.43;;;;;;;;;;6097384;23;20010;-43
2022/03/18 11:33:09;;;;;;;27.20;8.95;;;;;;;;;;6093245;23;20011;-47
2022/03/18 11:35:50;;;;;;;32.47;9.65;;;;;;;;;;6094757;23;20025;-45
2022/03/18 11:38:19;;;;;;;17.20;8.20;;;;;;;;;;6093084;23;20042;-47
2022/03/18 11:40:44;;;;;;;;;;;;;;;;;;6095857;23;20021;-46
2022/03/18 11:43:29;;;;;;;19.93;9.63;;;;;;;;;;6090813;23;19917;-43
2022/03/18 11:46:17;;;;;;;17.10;8.65;;;;;;;;;;6092676;23;20256;-43
2022/03/18 11:48:43;;;;;;;27.55;10.55;;;;;;;;;;6091132;23;20038;-45
2022/03/18 11:51:29;;;;;;;18.45;8.43;;;;;;;;;;6093437;23;20019;-45
2022/03/18 11:53:55;;;;;;;19.58;9.60;;;;;;;;;;6093854;23;20391;-44
2022/03/18 11:56:22;;;;;;;17.33;8.25;;;;;;;;;;6094078;23;20022;-45
2022/03/18 11:58:47;;;;;;;18.23;7.82;;;;;;;;;;6093537;23;20414;-44
2022/03/18 12:01:31;;;;;;;20.85;9.38;;;;;;;;;;6095241;23;20068;-43
2022/03/18 12:03:59;;;;;;;21.73;8.30;;;;;;;;;;6093067;23;20025;-47
2022/03/18 12:06:24;;;;;;;19.30;9.68;;;;;;;;;;6093219;23;20070;-44
2022/03/18 12:08:51;;;;;;;21.77;8.65;;;;;;;;;;6092486;23;20018;-45
2022/03/18 12:11:24;;;;;;;22.35;7.72;;;;;;;;;;6093790;23;20015;-49
2022/03/18 12:13:49;;;;;;;19.60;8.25;;;;;;;;;;6093138;23;20051;-46
2022/03/18 12:16:18;;;;;;;23.70;7.45;;;;;;;;;;6093587;23;20015;-48
2022/03/18 12:18:43;;;;;;;16.98;8.43;;;;;;;;;;6094701;23;20042;-43
2022/03/18 12:21:09;;;;;;;18.42;7.90;;;;;;;;;;6094231;23;20003;-47
2022/03/18 12:23:35;;;;;;;16.75;8.25;;;;;;;;;;6092805;23;20022;-44
2022/03/18 12:26:07;;;;;;;19.20;7.95;;;;;;;;;;6094437;23;20017;-47
2022/03/18 12:28:45;;;;;;;19.67;7.40;;;;;;;;;;6093464;23;20021;-44
2022/03/18 12:31:16;;;;;;;20.73;7.55;;;;;;;;;;6092937;23;20010;-45
2022/03/18 12:33:41;;;;;;;17.08;7.50;;;;;;;;;;6095781;23;20038;-45
2022/03/18 12:36:07;;;;;;;20.98;7.55;;;;;;;;;;6090974;23;20014;-44
2022/03/18 12:38:33;;;;;;;15.18;6.75;;;;;;;;;;6092729;23;20034;-45
2022/03/18 12:40:59;;;;;;;26.88;6.65;;;;;;;;;;6094018;23;20014;-45
2022/03/18 12:43:30;;;;;;;14.50;7.00;;;;;;;;;;6093894;23;20034;-43
2022/03/18 12:45:55;;;;;;;22.40;7.35;;;;;;;;;;6093394;23;19999;-45
2022/03/18 12:48:21;;;;;;;22.40;7.28;;;;;;;;;;6093955;23;20034;-45
2022/03/18 12:50:47;;;;;;;17.33;7.70;;;;;;;;;;6093259;23;20063;-43
2022/03/18 12:53:22;;;;;;;15.68;7.80;;;;;;;;;;6093380;23;20018;-43
2022/03/18 12:55:57;;;;;;;19.83;7.97;;;;;;;;;;6093059;23;20014;-45
2022/03/18 12:58:24;;;;;;;19.33;8.70;;;;;;;;;;6094866;23;20011;-45
2022/03/18 13:00:55;;;;;;;14.90;6.65;;;;;;;;;;6090722;23;20006;-46
2022/03/18 13:03:28;;;;;;;14.38;6.25;;;;;;;;;;6091576;23;20658;-45
2022/03/18 13:05:55;;;;;;;16.35;6.00;;;;;;;;;;6094008;23;20017;-43
2022/03/18 13:08:21;;;;;;;16.95;6.00;;;;;;;;;;6091634;23;20029;-44
2022/03/18 13:10:54;;;;;;;16.10;6.20;;;;;;;;;;6094750;23;20014;-44
2022/03/18 13:13:20;;;;;;;15.27;6.50;;;;;;;;;;6091493;23;20101;-44
2022/03/18 13:15:51;;;;;;;14.48;6.55;;;;;;;;;;6094852;23;20058;-45
2022/03/18 13:18:17;;;;;;;15.27;5.30;;;;;;;;;;6090756;23;20022;-45
2022/03/18 13:20:43;;;;;;;14.27;6.25;;;;;;;;;;6095129;23;20018;-46
2022/03/18 13:23:12;;;;;;;13.48;6.15;;;;;;;;;;6092107;23;20029;-46
2022/03/18 13:25:40;;;;;;;11.93;5.73;;;;;;;;;;6094236;23;20011;-44
2022/03/18 13:28:06;;;;;;;14.73;4.95;;;;;;;;;;6094518;23;20264;-45
2022/03/18 13:33:16;;;;;;;12.13;5.68;;;;;;;;;;6092728;23;20030;-45
2022/03/18 13:35:43;;;;;;;21.80;6.00;;;;;;;;;;6097295;23;20014;-45
2022/03/18 13:38:19;;;;;;;13.85;5.60;;;;;;;;;;6094383;23;20014;-48
2022/03/18 13:40:56;;;;;;;14.38;5.65;;;;;;;;;;6096109;23;20010;-44
2022/03/18 13:43:26;;;;;;;18.85;5.63;;;;;;;;;;6095913;23;20799;-46
2022/03/18 13:45:51;;;;;;;14.35;5.63;;;;;;;;;;6094588;23;20319;-44
2022/03/18 13:48:26;;;;;;;13.98;5.28;;;;;;;;;;6096112;23;20030;-48
2022/03/18 13:50:53;;;;;;;12.60;3.88;;;;;;;;;;6092932;23;20045;-44
2022/03/18 13:53:23;;;;;;;11.48;4.13;;;;;;;;;;6096584;23;20042;-43
2022/03/18 13:55:51;;;;;;;12.50;4.20;;;;;;;;;;6093761;23;20014;-48
2022/03/18 13:58:27;;;;;;;11.75;3.67;;;;;;;;;;6094129;23;20022;-45
2022/03/18 14:00:52;;;;;;;12.70;4.60;;;;;;;;;;6094434;23;20018;-42
2022/03/18 14:03:27;;;;;;;13.77;4.10;;;;;;;;;;6091973;23;20111;-47
2022/03/18 14:05:57;;;;;;;6.32;4.10;;;;;;;;;;6095958;23;20011;-47
2022/03/18 14:08:27;;;;;;;13.77;4.43;;;;;;;;;;6095276;23;20337;-43
2022/03/18 14:10:52;;;;;;;10.77;4.03;;;;;;;;;;6095449;23;20014;-47
2022/03/18 14:13:25;;;;;;;13.30;4.55;;;;;;;;;;6094600;23;20046;-46
2022/03/18 14:15:50;;;;;;;17.25;5.55;;;;;;;;;;6096429;23;20022;-43
2022/03/18 14:18:17;;;;;;;11.65;4.70;;;;;;;;;;6091725;23;20022;-45
2022/03/18 14:20:52;;;;;;;17.33;5.45;;;;;;;;;;6095068;23;20070;-46
2022/03/18 14:23:21;;;;;;;13.48;4.40;;;;;;;;;;6093683;23;20027;-44
2022/03/18 14:25:47;;;;;;;7.63;4.55;;;;;;;;;;6094872;23;20010;-44
2022/03/18 14:28:22;;;;;;;12.95;4.78;;;;;;;;;;6093357;23;20017;-44
2022/03/18 14:30:48;;;;;;;12.23;4.15;;;;;;;;;;6094730;23;20026;-46
2022/03/18 14:33:14;;;;;;;11.10;4.35;;;;;;;;;;6093428;23;20014;-43
2022/03/18 14:35:39;;;;;;;14.40;4.70;;;;;;;;;;6094392;23;20011;-44
2022/03/18 14:38:05;;;;;;;8.95;3.95;;;;;;;;;;6095123;23;20054;-43
2022/03/18 14:40:30;;;;;;;7.25;3.55;;;;;;;;;;6094419;23;22319;-44
2022/03/18 14:42:57;;;;;;;9.88;4.22;;;;;;;;;;6094219;23;20026;-45
2022/03/18 14:45:23;;;;;;;12.20;3.92;;;;;;;;;;6095354;23;20492;-44